createdAt,value
2022-12-08T00:02:09.573Z,10.77
2022-12-08T00:04:58.453Z,10.10
2022-12-08T00:07:44.570Z,9.17
2022-12-08T00:10:46.561Z,12.13
2022-12-08T00:13:02.034Z,10.77
2022-12-08T00:15:30.374Z,9.63
2022-12-08T00:18:00.333Z,12.53
2022-12-08T00:20:28.705Z,9.83
2022-12-08T00:22:57.447Z,11.20
2022-12-08T00:25:25.770Z,8.83
2022-12-08T00:27:54.089Z,7.50
2022-12-08T00:30:22.597Z,8.80
2022-12-08T00:32:51.135Z,7.70
2022-12-08T00:35:21.184Z,7.73
2022-12-08T00:37:49.498Z,6.60
2022-12-08T00:40:18.232Z,7.93
2022-12-08T00:42:46.706Z,8.40
2022-12-08T00:45:15.040Z,7.07
2022-12-08T00:47:43.568Z,7.73
2022-12-08T00:50:13.434Z,9.40
2022-12-08T00:52:43.410Z,6.40
2022-12-08T00:55:11.933Z,12.23
2022-12-08T00:57:40.357Z,5.90
2022-12-08T01:00:10.283Z,5.57
2022-12-08T01:02:38.880Z,4.80
2022-12-08T01:05:08.915Z,4.77
2022-12-08T01:07:37.712Z,4.37
2022-12-08T01:10:09.800Z,2.97
2022-12-08T01:12:38.149Z,4.20
2022-12-08T01:15:07.998Z,4.53
2022-12-08T01:17:38.201Z,5.87
2022-12-08T01:20:09.174Z,3.50
2022-12-08T01:22:37.518Z,3.33
2022-12-08T01:25:08.120Z,4.23
2022-12-08T01:27:36.401Z,1.67
2022-12-08T01:30:06.664Z,2.73
2022-12-08T01:32:35.324Z,2.80
2022-12-08T01:35:03.937Z,2.10
2022-12-08T01:37:32.555Z,1.50
2022-12-08T01:40:01.112Z,2.13
2022-12-08T01:42:32.417Z,1.53
2022-12-08T01:45:04.765Z,1.13
2022-12-08T01:47:40.273Z,5.17
2022-12-08T01:50:14.527Z,3.20
2022-12-08T01:52:49.407Z,1.43
2022-12-08T01:55:24.288Z,1.67
2022-12-08T01:57:58.849Z,1.47
2022-12-08T02:00:27.497Z,2.40
2022-12-08T02:03:01.555Z,7.43
2022-12-08T02:05:33.783Z,1.00
2022-12-08T02:08:06.794Z,1.03
2022-12-08T02:10:39.465Z,1.37
2022-12-08T02:13:13.712Z,2.50
2022-12-08T02:15:53.060Z,1.17
2022-12-08T02:18:50.469Z,1.20
2022-12-08T02:21:35.118Z,1.30
2022-12-08T02:24:15.773Z,1.87
2022-12-08T02:27:29.251Z,1.07
2022-12-08T02:30:25.389Z,1.00
2022-12-08T02:33:32.167Z,3.37
2022-12-08T02:36:08.550Z,1.33
2022-12-08T02:38:48.988Z,2.13
2022-12-08T02:41:30.266Z,1.53
2022-12-08T02:44:05.845Z,1.97
2022-12-08T02:46:40.705Z,6.00
2022-12-08T02:49:10.220Z,0.90
2022-12-08T02:51:40.138Z,1.93
2022-12-08T02:54:09.031Z,1.43
2022-12-08T02:56:59.263Z,1.97
2022-12-08T02:59:42.119Z,2.53
2022-12-08T03:02:29.944Z,1.20
2022-12-08T03:05:07.890Z,1.30
2022-12-08T03:07:45.929Z,3.70
2022-12-08T03:10:24.194Z,1.40
2022-12-08T03:13:00.361Z,3.33
2022-12-08T03:15:31.016Z,2.43
2022-12-08T03:18:01.466Z,2.53
2022-12-08T03:20:33.298Z,2.27
2022-12-08T03:23:08.757Z,2.07
2022-12-08T03:25:43.555Z,2.63
2022-12-08T03:28:12.770Z,3.00
2022-12-08T03:30:45.332Z,2.50
2022-12-08T03:33:21.348Z,2.47
2022-12-08T03:35:50.194Z,3.33
2022-12-08T03:38:20.187Z,4.07
2022-12-08T03:41:09.087Z,2.30
2022-12-08T03:43:37.900Z,2.90
2022-12-08T03:46:06.785Z,3.27
2022-12-08T03:48:35.305Z,4.20
2022-12-08T03:51:03.823Z,2.30
2022-12-08T03:53:33.634Z,4.60
2022-12-08T03:56:02.100Z,2.27
2022-12-08T03:58:35.807Z,2.27
2022-12-08T04:01:05.668Z,2.07
2022-12-08T04:03:34.246Z,3.60
2022-12-08T04:06:02.645Z,4.40
2022-12-08T04:08:31.016Z,1.70
2022-12-08T04:11:01.044Z,3.57
2022-12-08T04:13:29.892Z,1.93
2022-12-08T04:15:58.589Z,1.77
2022-12-08T04:18:26.906Z,3.87
2022-12-08T04:20:55.786Z,1.10
2022-12-08T04:23:24.637Z,1.00
2022-12-08T04:25:53.391Z,1.90
2022-12-08T04:28:23.508Z,1.00
2022-12-08T04:30:52.081Z,1.20
2022-12-08T04:33:20.530Z,1.87
2022-12-08T04:35:48.971Z,1.97
2022-12-08T04:38:18.023Z,1.60
2022-12-08T04:40:46.501Z,1.23
2022-12-08T04:43:14.932Z,1.47
2022-12-08T04:45:45.097Z,2.03
2022-12-08T04:48:13.690Z,3.00
2022-12-08T04:50:44.180Z,3.47
2022-12-08T04:53:14.048Z,2.50
2022-12-08T04:55:44.195Z,1.50
2022-12-08T04:58:14.866Z,1.97
2022-12-08T05:00:45.098Z,1.50
2022-12-08T05:03:14.693Z,2.00
2022-12-08T05:05:43.790Z,2.33
2022-12-08T05:08:12.573Z,4.13
2022-12-08T05:10:41.048Z,1.40
2022-12-08T05:13:09.943Z,1.83
2022-12-08T05:15:38.318Z,2.40
2022-12-08T05:18:08.652Z,2.00
2022-12-08T05:20:37.507Z,2.80
2022-12-08T05:23:05.836Z,1.80
2022-12-08T05:25:34.134Z,1.87
2022-12-08T05:28:32.811Z,3.30
2022-12-08T05:30:51.317Z,2.40
2022-12-08T05:33:21.028Z,3.53
2022-12-08T05:35:49.506Z,3.90
2022-12-08T05:38:17.910Z,2.53
2022-12-08T05:40:46.369Z,5.00
2022-12-08T05:43:14.882Z,1.93
2022-12-08T05:45:43.373Z,2.10
2022-12-08T05:48:12.111Z,4.23
2022-12-08T05:50:46.559Z,2.17
2022-12-08T05:53:16.042Z,2.30
2022-12-08T05:55:44.670Z,3.07
2022-12-08T05:58:15.943Z,3.10
2022-12-08T06:00:44.419Z,3.70
2022-12-08T06:03:14.649Z,3.40
2022-12-08T06:05:46.464Z,4.57
2022-12-08T06:08:16.034Z,4.40
2022-12-08T06:10:46.236Z,3.80
2022-12-08T06:13:15.852Z,6.47
2022-12-08T06:15:44.315Z,4.00
2022-12-08T06:18:13.355Z,3.23
2022-12-08T06:20:43.226Z,3.90
2022-12-08T06:23:11.952Z,3.07
2022-12-08T06:25:40.640Z,2.63
2022-12-08T06:28:08.960Z,2.37
2022-12-08T06:30:38.874Z,2.03
2022-12-08T06:33:07.873Z,2.87
2022-12-08T06:35:36.202Z,2.10
2022-12-08T06:38:05.869Z,2.43
2022-12-08T06:40:34.153Z,3.80
2022-12-08T06:43:02.487Z,2.57
2022-12-08T06:45:30.995Z,4.27
2022-12-08T06:48:00.175Z,3.40
2022-12-08T06:50:28.671Z,3.10
2022-12-08T06:53:04.757Z,4.73
2022-12-08T06:55:58.693Z,8.60
2022-12-08T06:58:25.126Z,3.43
2022-12-08T07:00:53.782Z,2.90
2022-12-08T07:03:22.782Z,2.70
2022-12-08T07:05:51.188Z,2.43
2022-12-08T07:08:19.935Z,3.30
2022-12-08T07:10:52.380Z,1.30
2022-12-08T07:13:20.776Z,3.40
2022-12-08T07:15:49.125Z,5.47
2022-12-08T07:18:17.600Z,2.30
2022-12-08T07:20:46.033Z,2.33
2022-12-08T07:23:14.589Z,2.23
2022-12-08T07:25:42.919Z,4.93
2022-12-08T07:28:13.568Z,6.43
2022-12-08T07:30:42.972Z,2.30
2022-12-08T07:33:11.388Z,2.50
2022-12-08T07:35:41.155Z,3.33
2022-12-08T07:38:13.681Z,2.97
2022-12-08T07:40:42.288Z,3.13
2022-12-08T07:43:11.935Z,4.17
2022-12-08T07:45:41.929Z,3.80
2022-12-08T07:48:10.385Z,6.43
2022-12-08T07:50:38.930Z,8.87
2022-12-08T07:53:08.685Z,7.40
2022-12-08T07:55:41.405Z,11.83
2022-12-08T07:58:10.667Z,12.93
2022-12-08T08:00:40.948Z,6.53
2022-12-08T08:03:12.554Z,6.00
2022-12-08T08:05:41.101Z,7.67
2022-12-08T08:08:09.677Z,3.60
2022-12-08T08:10:38.266Z,4.23
2022-12-08T08:13:06.583Z,4.10
2022-12-08T08:15:35.352Z,13.00
2022-12-08T08:18:06.391Z,3.00
2022-12-08T08:20:35.048Z,6.67
2022-12-08T08:23:03.415Z,4.13
2022-12-08T08:25:31.780Z,2.97
2022-12-08T08:28:00.181Z,5.07
2022-12-08T08:30:28.484Z,2.97
2022-12-08T08:32:56.843Z,3.50
2022-12-08T08:35:26.942Z,6.17
2022-12-08T08:37:55.239Z,3.47
2022-12-08T08:40:24.457Z,3.70
2022-12-08T08:42:52.959Z,5.60
2022-12-08T08:45:21.362Z,4.10
2022-12-08T08:47:50.475Z,4.33
2022-12-08T08:50:19.219Z,4.83
2022-12-08T08:52:50.296Z,4.03
2022-12-08T08:55:19.587Z,4.77
2022-12-08T08:57:47.897Z,3.77
2022-12-08T09:00:18.052Z,3.80
2022-12-08T09:02:46.397Z,3.50
2022-12-08T09:05:15.032Z,3.20
2022-12-08T09:07:43.643Z,2.37
2022-12-08T09:10:13.632Z,4.17
2022-12-08T09:12:42.244Z,3.40
2022-12-08T09:15:11.332Z,4.40
2022-12-08T09:17:39.700Z,2.33
2022-12-08T09:20:10.289Z,6.50
2022-12-08T09:22:38.946Z,2.73
2022-12-08T09:25:08.167Z,2.87
2022-12-08T09:27:38.141Z,7.27
2022-12-08T09:30:08.817Z,3.47
2022-12-08T09:32:37.471Z,5.03
2022-12-08T09:35:06.510Z,5.20
2022-12-08T09:37:35.130Z,3.30
2022-12-08T09:40:03.918Z,3.33
2022-12-08T09:42:49.067Z,5.10
2022-12-08T09:45:19.812Z,2.90
2022-12-08T09:47:59.004Z,3.30
2022-12-08T09:50:34.806Z,4.53
2022-12-08T09:53:10.649Z,25.00
2022-12-08T09:55:46.000Z,13.40
2022-12-08T09:58:24.905Z,7.73
2022-12-08T10:00:54.259Z,4.63
2022-12-08T10:03:28.371Z,5.07
2022-12-08T10:06:08.710Z,5.10
2022-12-08T10:08:48.280Z,3.70
2022-12-08T10:11:27.845Z,3.47
2022-12-08T10:14:05.059Z,2.50
2022-12-08T10:16:40.289Z,4.30
2022-12-08T10:19:19.837Z,2.20
2022-12-08T10:21:49.285Z,3.00
2022-12-08T10:24:27.460Z,3.40
2022-12-08T10:26:56.436Z,2.77
2022-12-08T10:29:26.454Z,4.73
2022-12-08T10:31:55.132Z,1.50
2022-12-08T10:34:24.773Z,1.73
2022-12-08T10:36:56.192Z,1.30
2022-12-08T10:39:36.990Z,2.20
2022-12-08T10:42:18.504Z,1.53
2022-12-08T10:45:24.538Z,1.77
2022-12-08T10:48:03.513Z,1.37
2022-12-08T10:50:42.590Z,1.83
2022-12-08T10:53:17.320Z,4.20
2022-12-08T10:55:48.045Z,3.10
2022-12-08T10:58:31.698Z,4.23
2022-12-08T11:01:07.537Z,4.30
2022-12-08T11:03:40.447Z,3.47
2022-12-08T11:06:18.895Z,1.90
2022-12-08T11:08:52.940Z,1.87
2022-12-08T11:11:29.067Z,1.80
2022-12-08T11:13:58.157Z,3.60
2022-12-08T11:16:29.222Z,4.57
2022-12-08T11:18:59.498Z,2.93
2022-12-08T11:21:37.971Z,2.17
2022-12-08T11:24:24.788Z,3.43
2022-12-08T11:26:58.741Z,2.70
2022-12-08T11:29:28.569Z,3.20
2022-12-08T11:32:01.908Z,3.30
2022-12-08T11:34:37.850Z,3.80
2022-12-08T11:37:09.527Z,4.13
2022-12-08T11:39:45.672Z,3.60
2022-12-08T11:42:18.015Z,4.90
2022-12-08T11:44:54.605Z,3.90
2022-12-08T11:47:29.724Z,4.20
2022-12-08T11:50:19.836Z,6.00
2022-12-08T11:52:51.848Z,3.27
2022-12-08T11:55:37.337Z,4.03
2022-12-08T11:58:17.978Z,3.20
2022-12-08T12:00:46.573Z,2.20
2022-12-08T12:03:29.824Z,3.30
2022-12-08T12:06:53.317Z,4.43
2022-12-08T12:09:27.729Z,3.13
2022-12-08T12:12:17.068Z,3.50
2022-12-08T12:15:21.786Z,4.10
2022-12-08T12:17:54.276Z,4.03
2022-12-08T12:20:31.896Z,4.50
2022-12-08T12:23:06.321Z,3.90
2022-12-08T12:25:37.194Z,4.20
2022-12-08T12:28:09.400Z,3.53
2022-12-08T12:30:57.547Z,3.80
2022-12-08T12:33:26.577Z,8.80
2022-12-08T12:36:03.150Z,6.30
2022-12-08T12:38:53.948Z,3.73
2022-12-08T12:41:27.388Z,3.80
2022-12-08T12:44:44.585Z,7.73
2022-12-08T12:47:54.115Z,7.10
2022-12-08T12:50:45.993Z,6.53
2022-12-08T12:53:51.247Z,9.67
2022-12-08T12:56:56.713Z,6.80
2022-12-08T12:59:54.661Z,3.77
2022-12-08T13:02:27.030Z,5.80
2022-12-08T13:05:01.996Z,6.67
2022-12-08T13:07:34.173Z,6.83
2022-12-08T13:10:17.618Z,5.77
2022-12-08T13:12:47.299Z,5.30
2022-12-08T13:15:21.481Z,5.20
2022-12-08T13:17:50.980Z,4.97
2022-12-08T13:20:24.774Z,5.23
2022-12-08T13:23:30.469Z,6.33
2022-12-08T13:26:20.212Z,5.03
2022-12-08T13:29:23.777Z,5.87
2022-12-08T13:31:54.725Z,9.37
2022-12-08T13:34:41.282Z,7.10
2022-12-08T13:37:27.222Z,11.93
2022-12-08T13:40:01.725Z,20.97
2022-12-08T13:42:42.171Z,26.07
2022-12-08T13:45:39.816Z,9.57
2022-12-08T13:48:42.200Z,5.27
2022-12-08T13:55:00.683Z,4.23
2022-12-08T13:57:08.509Z,5.20
2022-12-08T13:59:45.610Z,3.87
2022-12-08T14:02:21.630Z,2.73
2022-12-08T14:07:41.465Z,3.00
2022-12-08T14:10:15.930Z,4.80
2022-12-08T14:12:53.272Z,3.13
2022-12-08T14:15:23.673Z,2.60
2022-12-08T14:17:57.984Z,1.67
2022-12-08T14:20:31.415Z,4.00
2022-12-08T14:23:00.763Z,4.13
2022-12-08T14:25:30.709Z,4.00
2022-12-08T14:28:02.802Z,2.40
2022-12-08T14:30:33.717Z,3.80
2022-12-08T14:33:04.175Z,3.60
2022-12-08T14:35:35.623Z,2.93
2022-12-08T14:38:06.875Z,4.57
2022-12-08T14:40:37.595Z,7.13
2022-12-08T14:43:18.227Z,6.70
2022-12-08T14:45:53.587Z,5.17
2022-12-08T14:48:27.324Z,4.63
2022-12-08T14:51:06.394Z,3.37
2022-12-08T14:53:41.700Z,2.57
2022-12-08T14:56:21.817Z,5.97
2022-12-08T14:58:52.923Z,3.37
2022-12-08T15:01:25.086Z,6.80
2022-12-08T15:03:55.539Z,3.30
2022-12-08T15:06:24.726Z,2.53
2022-12-08T15:08:58.856Z,2.20
2022-12-08T15:11:37.174Z,2.80
2022-12-08T15:14:05.684Z,1.93
2022-12-08T15:16:43.942Z,2.73
2022-12-08T15:19:28.940Z,5.23
2022-12-08T15:22:00.132Z,3.57
2022-12-08T15:24:31.939Z,5.70
2022-12-08T15:27:00.369Z,2.20
2022-12-08T15:29:31.453Z,2.37
2022-12-08T15:32:02.930Z,1.87
2022-12-08T15:34:31.910Z,3.60
2022-12-08T15:37:00.592Z,2.20
2022-12-08T15:39:34.015Z,3.77
2022-12-08T15:42:03.756Z,2.27
2022-12-08T15:44:32.981Z,4.10
2022-12-08T15:47:03.069Z,5.63
2022-12-08T15:49:31.501Z,3.73
2022-12-08T15:52:10.694Z,3.90
2022-12-08T15:54:40.256Z,4.53
2022-12-08T15:57:53.080Z,3.80
2022-12-08T16:07:04.751Z,46.67
2022-12-08T16:09:15.933Z,10.70
2022-12-08T16:12:07.193Z,5.20
2022-12-08T16:17:24.859Z,5.10
2022-12-08T16:19:57.192Z,5.93
2022-12-08T16:25:19.781Z,4.10
2022-12-08T16:28:29.585Z,4.17
2022-12-08T16:30:39.322Z,5.60
2022-12-08T16:33:07.865Z,5.70
2022-12-08T16:35:38.032Z,6.20
2022-12-08T16:38:06.516Z,3.63
2022-12-08T16:40:55.937Z,4.57
2022-12-08T16:43:23.464Z,4.80
2022-12-08T16:45:51.747Z,4.77
2022-12-08T16:48:20.623Z,3.00
2022-12-08T16:50:50.368Z,3.17
2022-12-08T16:53:18.985Z,11.57
2022-12-08T16:55:48.828Z,21.73
2022-12-08T16:58:18.606Z,11.50
2022-12-08T17:00:47.328Z,7.23
2022-12-08T17:03:17.701Z,8.10
2022-12-08T17:05:46.315Z,12.27
2022-12-08T17:08:16.259Z,11.23
2022-12-08T17:10:44.794Z,8.57
2022-12-08T17:13:16.856Z,9.83
2022-12-08T17:15:45.198Z,10.87
2022-12-08T17:18:13.760Z,9.20
2022-12-08T17:20:42.089Z,9.73
2022-12-08T17:23:10.730Z,12.57
2022-12-08T17:25:40.514Z,12.60
2022-12-08T17:28:08.985Z,10.87
2022-12-08T17:30:37.718Z,15.20
2022-12-08T17:33:06.081Z,10.23
2022-12-08T17:35:34.633Z,16.53
2022-12-08T17:38:03.030Z,15.03
2022-12-08T17:40:31.471Z,15.47
2022-12-08T17:43:01.170Z,15.07
2022-12-08T17:45:29.533Z,12.93
2022-12-08T17:47:58.012Z,14.30
2022-12-08T17:50:26.436Z,14.03
2022-12-08T17:52:54.792Z,15.10
2022-12-08T17:55:23.557Z,15.07
2022-12-08T17:57:51.946Z,14.67
2022-12-08T18:00:22.263Z,14.67
2022-12-08T18:02:51.075Z,16.90
2022-12-08T18:05:20.135Z,13.63
2022-12-08T18:07:48.800Z,13.17
2022-12-08T18:10:18.404Z,25.70
2022-12-08T18:12:47.352Z,40.33
2022-12-08T18:15:20.524Z,69.43
2022-12-08T18:17:50.422Z,72.70
2022-12-08T18:20:19.430Z,19.90
2022-12-08T18:22:47.834Z,36.97
2022-12-08T18:25:16.520Z,105.57
2022-12-08T18:27:45.513Z,120.57
2022-12-08T18:30:18.901Z,141.47
2022-12-08T18:32:47.493Z,79.87
2022-12-08T18:35:17.347Z,32.00
2022-12-08T18:37:47.159Z,16.70
2022-12-08T18:40:16.510Z,17.73
2022-12-08T18:42:44.987Z,20.40
2022-12-08T18:45:17.883Z,24.13
2022-12-08T18:47:50.858Z,22.47
2022-12-08T18:50:20.942Z,25.23
2022-12-08T18:52:49.710Z,30.70
2022-12-08T18:55:18.179Z,27.43
2022-12-08T18:57:46.937Z,18.53
2022-12-08T19:00:18.925Z,21.50
2022-12-08T19:02:47.499Z,18.80
2022-12-08T19:05:16.663Z,17.37
2022-12-08T19:07:46.978Z,13.07
2022-12-08T19:10:16.102Z,15.80
2022-12-08T19:12:44.440Z,18.00
2022-12-08T19:15:13.643Z,11.70
2022-12-08T19:17:42.228Z,17.70
2022-12-08T19:20:12.013Z,14.57
2022-12-08T19:22:40.584Z,10.70
2022-12-08T19:25:11.173Z,9.70
2022-12-08T19:27:39.627Z,12.03
2022-12-08T19:30:11.319Z,14.33
2022-12-08T19:32:39.772Z,17.83
2022-12-08T19:35:09.116Z,8.97
2022-12-08T19:37:37.776Z,14.80
2022-12-08T19:40:29.202Z,40.27
2022-12-08T19:43:14.416Z,18.77
2022-12-08T19:45:43.196Z,8.40
2022-12-08T19:48:12.885Z,11.93
2022-12-08T19:50:42.134Z,12.00
2022-12-08T19:53:14.535Z,19.40
2022-12-08T19:55:45.588Z,20.20
2022-12-08T19:58:14.983Z,12.17
2022-12-08T20:00:45.193Z,16.97
2022-12-08T20:03:17.015Z,12.53
2022-12-08T20:05:46.895Z,12.23
2022-12-08T20:08:16.107Z,7.23
2022-12-08T20:10:46.804Z,11.73
2022-12-08T20:13:32.725Z,15.80
2022-12-08T20:16:01.421Z,37.17
2022-12-08T20:18:30.274Z,64.00
2022-12-08T20:20:59.148Z,51.63
2022-12-08T20:23:27.521Z,26.87
2022-12-08T20:25:57.780Z,42.93
2022-12-08T20:28:26.396Z,31.10
2022-12-08T20:30:55.185Z,22.13
2022-12-08T20:33:23.803Z,21.80
2022-12-08T20:36:00.857Z,15.57
2022-12-08T20:38:30.245Z,17.03
2022-12-08T20:41:00.777Z,15.73
2022-12-08T20:43:29.392Z,19.13
2022-12-08T20:45:57.909Z,14.40
2022-12-08T20:48:26.432Z,16.03
2022-12-08T20:50:55.031Z,16.60
2022-12-08T20:53:23.785Z,17.33
2022-12-08T20:55:52.215Z,14.33
2022-12-08T20:58:24.676Z,13.47
2022-12-08T21:00:53.254Z,22.10
2022-12-08T21:03:22.015Z,16.33
2022-12-08T21:05:52.132Z,18.70
2022-12-08T21:08:25.066Z,250.30
2022-12-08T21:10:57.952Z,169.93
2022-12-08T21:13:27.924Z,54.73
2022-12-08T21:15:56.489Z,38.63
2022-12-08T21:18:26.036Z,28.30
2022-12-08T21:21:02.652Z,34.40
2022-12-08T21:23:31.343Z,23.20
2022-12-08T21:26:01.217Z,18.93
2022-12-08T21:28:31.263Z,26.20
2022-12-08T21:30:59.887Z,19.70
2022-12-08T21:33:28.483Z,18.67
2022-12-08T21:36:04.430Z,18.20
2022-12-08T21:38:33.649Z,21.70
2022-12-08T21:41:06.023Z,16.97
2022-12-08T21:43:36.152Z,18.60
2022-12-08T21:46:04.993Z,19.93
2022-12-08T21:48:33.487Z,27.83
2022-12-08T21:51:05.869Z,17.40
2022-12-08T21:53:34.330Z,13.70
2022-12-08T21:56:02.987Z,18.40
2022-12-08T21:58:32.799Z,16.40
2022-12-08T22:01:08.947Z,15.90
2022-12-08T22:03:37.991Z,14.30
2022-12-08T22:06:07.911Z,17.00
2022-12-08T22:08:36.834Z,13.73
2022-12-08T22:11:07.040Z,12.70
2022-12-08T22:13:36.054Z,15.13
2022-12-08T22:16:10.032Z,13.77
2022-12-08T22:18:39.665Z,14.57
2022-12-08T22:21:10.962Z,33.90
2022-12-08T22:23:39.697Z,18.73
2022-12-08T22:26:09.424Z,15.73
2022-12-08T22:28:40.689Z,13.47
2022-12-08T22:31:14.688Z,14.63
2022-12-08T22:33:44.508Z,13.97
2022-12-08T22:36:17.636Z,20.17
2022-12-08T22:38:46.383Z,17.27
2022-12-08T22:41:15.550Z,17.37
2022-12-08T22:43:44.823Z,20.83
2022-12-08T22:46:18.690Z,25.53
2022-12-08T22:48:47.971Z,27.73
2022-12-08T22:51:17.011Z,29.47
2022-12-08T22:53:46.184Z,32.93
2022-12-08T22:56:16.617Z,34.57
2022-12-08T22:58:45.551Z,33.97
2022-12-08T23:01:26.810Z,37.17
2022-12-08T23:03:55.715Z,38.60
2022-12-08T23:06:24.943Z,37.00
2022-12-08T23:08:54.243Z,45.53
2022-12-08T23:11:25.273Z,36.57
2022-12-08T23:13:53.826Z,36.10
2022-12-08T23:16:24.632Z,39.10
2022-12-08T23:18:53.762Z,33.70
2022-12-08T23:21:22.575Z,46.83
2022-12-08T23:23:51.145Z,37.83
2022-12-08T23:26:24.809Z,40.30
2022-12-08T23:28:53.499Z,42.97
2022-12-08T23:31:25.097Z,36.33
2022-12-08T23:33:55.099Z,40.63
2022-12-08T23:36:26.859Z,47.83
2022-12-08T23:38:56.008Z,42.30
2022-12-08T23:41:24.935Z,49.03
2022-12-08T23:43:54.141Z,43.03
2022-12-08T23:46:24.653Z,42.87
2022-12-08T23:48:53.299Z,41.33
2022-12-08T23:51:22.028Z,49.00
2022-12-08T23:53:50.536Z,44.07
2022-12-08T23:56:22.102Z,34.40
2022-12-08T23:58:52.007Z,36.57
